Time;durP1;ratioP1;P1;durP2;ratioP2;P2;SDS_P1;SDS_P2;PMS_P1;PMS_P2;Temp;Humidity;BMP_temperature;BMP_pressure;BME280_temperature;BME280_humidity;BME280_pressure;Samples;Min_cycle;Max_cycle;Signal;HPM_P1;HPM_P2
2021/09/21 00:00:12;;;;;;;5.65;2.80;;;;;;;9.76;92.07;101223.28;4954794;28;20053;-76
2021/09/21 00:02:57;;;;;;;4.30;2.45;;;;;;;9.75;92.38;101217.06;4955217;29;20427;-75
2021/09/21 00:05:42;;;;;;;4.35;2.88;;;;;;;9.74;92.45;101214.50;4954967;29;20118;-75
2021/09/21 00:08:29;;;;;;;5.53;2.60;;;;;;;9.71;92.44;101222.75;4954923;29;20065;-78
2021/09/21 00:11:14;;;;;;;4.72;2.35;;;;;;;9.70;92.40;101229.09;4954865;28;20069;-77
2021/09/21 00:14:00;;;;;;;6.17;2.63;;;;;;;9.71;92.73;101231.69;4954757;29;20074;-74
2021/09/21 00:16:45;;;;;;;4.45;2.83;;;;;;;9.68;92.61;101229.22;4954394;29;20557;-74
2021/09/21 00:19:32;;;;;;;5.53;3.13;;;;;;;9.85;91.61;101227.97;4954720;28;20062;-75
2021/09/21 00:22:18;;;;;;;6.80;3.70;;;;;;;9.90;91.09;101236.50;4954689;29;20545;-77
2021/09/21 00:25:05;;;;;;;4.28;2.88;;;;;;;9.87;90.88;101232.25;4954257;29;20187;-76
2021/09/21 00:27:50;;;;;;;6.43;3.65;;;;;;;9.96;90.21;101236.91;4953746;29;20066;-77
2021/09/21 00:30:36;;;;;;;4.27;2.73;;;;;;;9.87;90.83;101247.47;4954165;28;20157;-78
2021/09/21 00:33:23;;;;;;;5.13;3.40;;;;;;;10.03;89.77;101237.28;4954449;29;20371;-76
2021/09/21 00:36:09;;;;;;;6.30;3.78;;;;;;;9.99;90.37;101234.97;4953510;29;20062;-77
2021/09/21 00:38:54;;;;;;;5.97;3.08;;;;;;;9.91;90.29;101230.16;4954309;28;20054;-76
2021/09/21 00:41:41;;;;;;;6.32;3.20;;;;;;;9.90;90.41;101229.31;4954714;29;20198;-76
2021/09/21 00:44:27;;;;;;;4.07;2.40;;;;;;;9.79;91.00;101231.94;4955022;29;20565;-76
2021/09/21 00:47:12;;;;;;;5.97;2.72;;;;;;;9.75;91.72;101233.16;4954019;28;20540;-78
2021/09/21 00:49:58;;;;;;;5.45;3.22;;;;;;;9.75;91.26;101235.00;4955232;28;20114;-76
2021/09/21 00:52:44;;;;;;;5.25;3.17;;;;;;;9.70;91.73;101229.09;4994068;23;20205;-61
2021/09/21 00:55:28;;;;;;;8.38;4.15;;;;;;;9.75;91.69;101237.66;4991986;28;20542;-58
2021/09/21 00:58:15;;;;;;;6.13;3.38;;;;;;;9.80;90.84;101243.53;4992388;28;20085;-56
2021/09/21 01:01:00;;;;;;;6.32;3.67;;;;;;;10.08;89.47;101245.84;4992209;28;20057;-54
2021/09/21 01:03:44;;;;;;;6.93;3.80;;;;;;;10.07;89.87;101249.50;4991919;28;20061;-57
2021/09/21 01:06:29;;;;;;;5.60;3.25;;;;;;;10.03;90.00;101250.69;4992082;28;20080;-55
2021/09/21 01:09:19;;;;;;;8.50;4.10;;;;;;;9.98;89.52;101249.34;4992415;28;20416;-60
2021/09/21 01:12:04;;;;;;;8.25;4.15;;;;;;;10.17;89.04;101249.63;4992663;28;20057;-56
2021/09/21 01:14:50;;;;;;;5.75;3.53;;;;;;;10.02;89.59;101240.09;4992048;28;20528;-58
2021/09/21 01:17:35;;;;;;;;;;;;;;;9.98;89.94;101235.94;4992266;28;20081;-58
2021/09/21 01:20:20;;;;;;;4.97;3.25;;;;;;;9.85;90.13;101228.81;4992150;28;19933;-55
2021/09/21 01:23:07;;;;;;;5.00;3.05;;;;;;;9.88;90.22;101233.09;4992183;28;20081;-61
2021/09/21 01:25:55;;;;;;;5.82;3.00;;;;;;;9.91;90.02;101241.75;4991679;28;20061;-59
2021/09/21 01:28:40;;;;;;;8.25;3.20;;;;;;;10.04;89.82;101243.50;4991709;28;20475;-59
2021/09/21 01:31:25;;;;;;;7.35;3.80;;;;;;;10.03;89.68;101245.34;4991838;28;20416;-56
2021/09/21 01:34:17;;;;;;;9.10;4.03;;;;;;;10.18;89.09;101246.88;4991486;28;20061;-60
2021/09/21 01:37:05;;;;;;;6.13;3.20;;;;;;;9.94;89.50;101237.97;4991171;28;20090;-59
2021/09/21 01:39:51;;;;;;;5.22;3.25;;;;;;;9.81;90.97;101237.19;4991576;28;20062;-58
2021/09/21 01:42:41;;;;;;;;;;;;;;;9.71;91.25;101242.41;4991987;28;20078;-59
2021/09/21 01:45:26;;;;;;;10.05;3.70;;;;;;;9.77;91.77;101249.13;4991373;28;20024;-57
2021/09/21 01:48:11;;;;;;;6.32;3.45;;;;;;;9.86;90.44;101241.25;4991624;28;20077;-56
2021/09/21 01:50:58;;;;;;;6.47;3.38;;;;;;;9.72;90.83;101248.63;4991493;28;20132;-60
2021/09/21 01:53:49;;;;;;;7.13;3.47;;;;;;;9.63;91.95;101247.47;4991425;28;20057;-59
2021/09/21 01:59:38;;;;;;;6.15;3.17;;;;;;;9.67;90.91;101247.13;4991375;28;20062;-60
2021/09/21 02:02:23;;;;;;;9.93;3.42;;;;;;;9.76;91.41;101244.75;4991422;28;20069;-57
2021/09/21 02:05:09;;;;;;;6.45;4.20;;;;;;;10.02;89.34;101243.63;4991720;28;20425;-62
2021/09/21 02:07:54;;;;;;;7.10;3.67;;;;;;;10.07;88.78;101252.19;4994593;28;20077;-61
2021/09/21 02:10:39;;;;;;;6.38;3.60;;;;;;;10.03;89.62;101248.00;4995584;28;20068;-55
2021/09/21 02:13:26;;;;;;;6.57;3.97;;;;;;;10.00;89.56;101242.91;4994942;28;20282;-57
2021/09/21 02:16:11;;;;;;;8.55;4.30;;;;;;;9.90;89.83;101247.22;4994357;28;20054;-61
2021/09/21 02:18:57;;;;;;;7.57;3.80;;;;;;;9.77;90.60;101239.25;4995118;28;20123;-56
2021/09/21 02:21:42;;;;;;;8.02;3.63;;;;;;;9.68;90.34;101243.47;4995211;28;20065;-55
2021/09/21 02:24:28;;;;;;;6.37;3.70;;;;;;;9.62;91.34;101243.94;4994794;28;20057;-58
2021/09/21 02:27:13;;;;;;;9.15;4.15;;;;;;;9.50;91.52;101235.97;4994371;28;20081;-58
2021/09/21 02:29:59;;;;;;;6.30;3.78;;;;;;;9.42;91.83;101247.22;4994395;28;20065;-59
2021/09/21 02:32:46;;;;;;;8.13;3.63;;;;;;;9.45;92.04;101238.94;4994620;28;20073;-58
2021/09/21 02:35:31;;;;;;;6.88;3.92;;;;;;;9.52;91.88;101242.06;4994753;28;20061;-57
2021/09/21 02:38:17;;;;;;;7.33;3.67;;;;;;;9.50;91.70;101249.34;4994653;28;20148;-55
2021/09/21 02:41:02;;;;;;;6.97;3.38;;;;;;;9.53;91.71;101249.13;4994825;28;20296;-54
2021/09/21 02:43:48;;;;;;;9.80;4.10;;;;;;;9.54;91.44;101243.66;4994394;28;20054;-60
2021/09/21 02:46:34;;;;;;;9.10;4.35;;;;;;;9.45;91.72;101247.00;4994092;28;20297;-58
2021/09/21 02:49:19;;;;;;;6.47;3.65;;;;;;;9.36;92.69;101242.34;4994342;28;20531;-57
2021/09/21 02:52:05;;;;;;;6.65;3.67;;;;;;;9.35;91.95;101235.22;4994288;28;20140;-54
2021/09/21 02:54:50;;;;;;;5.50;3.00;;;;;;;9.28;92.39;101239.34;4987953;28;20053;-56
2021/09/21 02:57:36;;;;;;;6.85;3.78;;;;;;;9.18;93.05;101240.97;4988627;28;20695;-55
2021/09/21 03:00:24;;;;;;;14.20;4.00;;;;;;;8.98;93.57;101235.22;4994006;28;20427;-58
2021/09/21 03:03:10;;;;;;;6.32;3.97;;;;;;;9.00;93.62;101246.72;4994084;28;20200;-57
2021/09/21 03:05:58;;;;;;;7.50;3.67;;;;;;;8.90;93.73;101251.00;4994035;28;20192;-56
2021/09/21 03:08:43;;;;;;;6.72;3.60;;;;;;;8.81;94.37;101251.66;4994162;28;20061;-57
2021/09/21 03:11:31;;;;;;;7.32;4.10;;;;;;;8.95;93.98;101264.91;4994259;28;20056;-54
2021/09/21 03:17:25;;;;;;;7.40;4.13;;;;;;;9.29;92.62;101281.25;4992562;28;20397;-57
2021/09/21 03:20:12;;;;;;;7.97;4.53;;;;;;;9.53;91.66;101286.66;4994077;28;20197;-57
2021/09/21 03:22:58;;;;;;;8.55;4.82;;;;;;;9.53;90.87;101283.97;4994057;28;20101;-60
2021/09/21 03:25:43;;;;;;;8.32;4.30;;;;;;;9.49;91.22;101279.81;4993689;28;20065;-55
2021/09/21 03:28:28;;;;;;;6.18;3.75;;;;;;;9.32;91.99;101281.88;4993827;28;20057;-60
2021/09/21 03:31:13;;;;;;;5.20;3.40;;;;;;;9.07;92.58;101273.88;4993644;28;20076;-59
2021/09/21 03:33:57;;;;;;;5.93;3.65;;;;;;;8.94;93.61;101281.94;4993826;28;20056;-61
2021/09/21 03:36:44;;;;;;;6.40;3.65;;;;;;;8.88;93.89;101279.72;4993653;28;20124;-57
2021/09/21 03:39:29;;;;;;;7.43;4.28;;;;;;;8.92;94.01;101283.88;4993393;28;20053;-60
2021/09/21 03:42:14;;;;;;;7.40;4.33;;;;;;;8.77;94.66;101282.28;4993657;28;20563;-59
2021/09/21 03:44:59;;;;;;;8.60;3.88;;;;;;;8.79;94.93;101285.69;4993649;28;20507;-57
2021/09/21 03:47:45;;;;;;;6.82;3.75;;;;;;;8.70;94.93;101283.66;4993116;28;20144;-57
2021/09/21 03:50:30;;;;;;;9.52;3.78;;;;;;;8.65;95.49;101291.16;4993890;28;20113;-59
2021/09/21 03:53:16;;;;;;;6.07;3.33;;;;;;;8.58;95.64;101293.38;4993234;28;20412;-61
2021/09/21 03:56:03;;;;;;;7.18;4.57;;;;;;;8.63;95.55;101296.59;4992759;28;20308;-61
2021/09/21 03:58:49;;;;;;;8.68;4.40;;;;;;;8.75;95.08;101289.53;4993357;28;20209;-58
2021/09/21 04:01:34;;;;;;;7.95;4.00;;;;;;;8.66;94.98;101284.84;4993125;28;20117;-56
2021/09/21 04:04:19;;;;;;;6.17;3.30;;;;;;;8.67;95.07;101292.75;4993064;28;20053;-56
2021/09/21 04:07:04;;;;;;;6.90;4.30;;;;;;;8.54;95.08;101288.38;4992658;28;20061;-57
2021/09/21 04:09:50;;;;;;;9.82;4.50;;;;;;;8.51;95.35;101292.09;4993295;28;20124;-57
2021/09/21 04:12:36;;;;;;;6.55;3.40;;;;;;;8.39;95.68;101290.25;4993094;28;20444;-57
2021/09/21 04:15:21;;;;;;;8.40;4.97;;;;;;;8.46;95.62;101289.75;4992699;28;20416;-58
2021/09/21 04:18:08;;;;;;;8.30;3.97;;;;;;;8.41;95.42;101283.00;4992961;28;20255;-57
2021/09/21 04:20:53;;;;;;;7.38;4.30;;;;;;;8.26;95.77;101286.66;4992711;28;20060;-60
2021/09/21 04:23:40;;;;;;;7.60;4.72;;;;;;;8.20;95.91;101294.16;4992797;28;20058;-58
2021/09/21 04:26:26;;;;;;;9.57;4.13;;;;;;;8.11;96.50;101294.78;4992259;28;20057;-57
2021/09/21 04:29:12;;;;;;;10.15;4.72;;;;;;;8.13;96.63;101302.69;4992136;28;20180;-61
2021/09/21 04:32:00;;;;;;;8.23;3.88;;;;;;;8.07;96.81;101301.28;4992570;28;20144;-58
2021/09/21 04:34:47;;;;;;;8.05;3.58;;;;;;;8.00;96.79;101297.31;4993030;28;20428;-54
2021/09/21 04:37:32;;;;;;;8.30;4.30;;;;;;;7.97;97.05;101302.88;4992215;28;20057;-59
2021/09/21 04:40:17;;;;;;;10.70;4.90;;;;;;;8.25;96.75;101312.56;4992770;28;20065;-57
2021/09/21 04:43:04;;;;;;;8.35;4.40;;;;;;;8.32;96.26;101315.69;4992693;28;20156;-58
2021/09/21 04:45:50;;;;;;;8.32;4.18;;;;;;;8.29;96.55;101316.75;4992621;28;20543;-62
2021/09/21 04:48:35;;;;;;;8.43;4.68;;;;;;;8.27;96.79;101315.13;4992672;28;20069;-59
2021/09/21 04:51:20;;;;;;;9.13;4.97;;;;;;;8.44;96.32;101323.78;4992531;28;20058;-59
2021/09/21 04:54:05;;;;;;;8.93;4.72;;;;;;;8.43;96.03;101335.44;4992415;28;20069;-61
2021/09/21 04:56:50;;;;;;;9.03;4.30;;;;;;;8.44;96.12;101333.63;4991615;28;20528;-61
2021/09/21 04:59:37;;;;;;;7.90;4.50;;;;;;;8.63;95.36;101338.56;4992397;28;20189;-63
2021/09/21 05:02:22;;;;;;;8.20;4.82;;;;;;;8.66;94.96;101341.91;4992223;28;20062;-57
2021/09/21 05:05:08;;;;;;;8.05;4.90;;;;;;;8.69;94.94;101333.66;4991615;28;20058;-57
2021/09/21 05:07:52;;;;;;;10.43;5.25;;;;;;;8.64;95.11;101330.44;4991504;28;20446;-59
2021/09/21 05:10:38;;;;;;;6.78;4.05;;;;;;;8.55;95.42;101331.06;4992142;28;20180;-56
2021/09/21 05:13:23;;;;;;;9.38;5.30;;;;;;;8.77;94.89;101341.16;4992033;28;20523;-59
2021/09/21 05:16:09;;;;;;;10.82;5.05;;;;;;;8.78;93.76;101348.22;4991958;28;20479;-54
2021/09/21 05:18:54;;;;;;;;;;;;;;;8.84;93.61;101349.59;4992402;28;20072;-57
2021/09/21 05:21:39;;;;;;;8.27;4.35;;;;;;;8.83;93.94;101351.44;4992118;28;20410;-63
2021/09/21 05:24:24;;;;;;;9.32;5.28;;;;;;;8.82;94.05;101349.72;4992123;28;20053;-58
2021/09/21 05:27:09;;;;;;;8.50;4.27;;;;;;;8.77;93.94;101347.38;4991927;28;20061;-58
2021/09/21 05:29:54;;;;;;;9.32;4.75;;;;;;;8.76;94.22;101351.03;4991896;28;20068;-62
2021/09/21 05:32:41;;;;;;;10.88;4.30;;;;;;;8.78;94.46;101348.22;4992109;28;20222;-57
2021/09/21 05:35:26;;;;;;;10.70;4.97;;;;;;;8.74;93.88;101349.38;4992054;28;20053;-58
2021/09/21 05:38:12;;;;;;;9.37;4.77;;;;;;;8.67;94.34;101356.13;4991646;28;20101;-58
2021/09/21 05:40:57;;;;;;;14.33;5.80;;;;;;;8.75;94.57;101362.66;4994102;28;20066;-56
2021/09/21 05:43:42;;;;;;;7.57;4.80;;;;;;;8.66;94.82;101370.47;4995946;28;20073;-60
2021/09/21 05:46:27;;;;;;;7.47;4.20;;;;;;;8.67;94.91;101361.50;4995602;28;20379;-56
2021/09/21 05:49:13;;;;;;;10.75;4.50;;;;;;;8.74;95.07;101363.63;4995971;28;20109;-56
2021/09/21 05:51:58;;;;;;;;;;;;;;;8.78;95.11;101372.31;4996401;28;20253;-56
2021/09/21 05:54:43;;;;;;;9.20;4.10;;;;;;;8.86;94.59;101371.78;4994842;28;19928;-56
2021/09/21 05:57:28;;;;;;;8.90;4.50;;;;;;;8.95;94.69;101379.19;4995307;28;20104;-57
2021/09/21 06:00:16;;;;;;;12.82;5.75;;;;;;;9.06;93.57;101380.16;4996071;28;20168;-56
2021/09/21 06:03:01;;;;;;;8.40;4.47;;;;;;;9.04;93.46;101375.88;4987312;28;20426;-63
2021/09/21 06:05:48;;;;;;;8.63;4.45;;;;;;;9.00;93.50;101374.38;4987382;28;20057;-61
2021/09/21 06:08:33;;;;;;;14.10;6.70;;;;;;;9.00;94.00;101379.72;4993822;28;20065;-57
2021/09/21 06:11:20;;;;;;;8.60;4.60;;;;;;;9.09;94.04;101385.28;4976569;28;20058;-56
2021/09/21 06:14:06;;;;;;;10.07;4.63;;;;;;;9.22;93.72;101389.78;4975880;28;20077;-56
2021/09/21 06:16:51;;;;;;;11.38;5.18;;;;;;;9.31;92.99;101391.81;4975508;28;20062;-57
2021/09/21 06:19:37;;;;;;;11.98;5.25;;;;;;;9.38;92.54;101395.78;4976047;28;20078;-62
2021/09/21 06:22:23;;;;;;;8.73;5.20;;;;;;;9.49;91.70;101393.22;4975382;28;20053;-54
2021/09/21 06:25:10;;;;;;;7.80;4.97;;;;;;;9.46;92.42;101393.41;4975678;28;20127;-58
2021/09/21 06:27:55;;;;;;;8.30;4.75;;;;;;;9.53;91.82;101396.53;4974985;28;20062;-58
2021/09/21 06:30:40;;;;;;;7.97;4.70;;;;;;;9.64;91.34;101402.81;4975725;28;20137;-60
2021/09/21 06:33:25;;;;;;;10.52;5.07;;;;;;;9.91;90.56;101405.34;4975219;28;20121;-57
2021/09/21 06:36:10;;;;;;;7.72;4.90;;;;;;;10.08;89.73;101403.25;4974827;28;20397;-58
2021/09/21 06:38:56;;;;;;;10.00;5.55;;;;;;;10.43;88.29;101404.22;4975783;28;20066;-58
2021/09/21 06:41:41;;;;;;;9.55;4.90;;;;;;;10.79;86.24;101408.63;4975756;28;20097;-57
2021/09/21 06:44:26;;;;;;;8.70;4.90;;;;;;;10.95;85.51;101410.13;4975382;28;20165;-58
2021/09/21 06:47:11;;;;;;;9.07;4.47;;;;;;;11.10;84.31;101417.84;4975445;28;20193;-59
2021/09/21 06:49:56;;;;;;;7.72;4.43;;;;;;;11.21;84.13;101414.31;4974599;28;20065;-60
2021/09/21 06:55:19;;;;;;;7.30;3.97;;;;;;;11.32;82.39;101417.03;4979832;28;20105;-63
2021/09/21 06:58:05;;;;;;;9.05;4.30;;;;;;;11.38;81.98;101416.56;4974764;28;20527;-63
2021/09/21 07:00:50;;;;;;;10.35;4.75;;;;;;;11.53;82.07;101421.69;4974806;28;20567;-63
2021/09/21 07:03:35;;;;;;;8.75;4.40;;;;;;;11.63;80.89;101423.53;4983607;28;20057;-65
2021/09/21 07:06:20;;;;;;;7.55;3.85;;;;;;;11.70;80.24;101418.50;4993967;28;20065;-64
2021/09/21 07:09:05;;;;;;;7.47;4.13;;;;;;;11.87;79.61;101426.13;4994054;28;20057;-62
2021/09/21 07:11:51;;;;;;;7.47;3.60;;;;;;;12.03;79.11;101424.88;4994492;28;20407;-64
2021/09/21 07:14:36;;;;;;;5.32;3.45;;;;;;;12.19;78.52;101433.38;4956750;28;20066;-63
2021/09/21 07:17:22;;;;;;;6.97;3.17;;;;;;;12.31;77.95;101435.06;4954836;29;20568;-60
2021/09/21 07:20:08;;;;;;;7.25;3.50;;;;;;;12.47;77.37;101438.22;4955000;29;20524;-62
2021/09/21 07:22:54;;;;;;;7.82;4.07;;;;;;;12.58;76.75;101445.41;4954741;29;20190;-62
2021/09/21 07:25:39;;;;;;;8.00;3.47;;;;;;;12.68;75.79;101446.34;4954679;29;20600;-63
2021/09/21 07:28:25;;;;;;;6.70;3.85;;;;;;;12.82;75.53;101447.88;4954723;29;20761;-63
2021/09/21 07:31:11;;;;;;;7.55;4.18;;;;;;;12.98;74.15;101436.66;4954481;29;20469;-63
2021/09/21 07:33:56;;;;;;;7.38;3.30;;;;;;;13.05;74.14;101435.16;4954935;29;20073;-62
2021/09/21 07:36:41;;;;;;;4.97;3.10;;;;;;;13.22;74.73;101448.06;4954133;29;20054;-63
2021/09/21 07:39:26;;;;;;;7.17;3.37;;;;;;;13.25;71.88;101439.69;4954662;29;20190;-62
2021/09/21 07:42:11;;;;;;;7.32;3.97;;;;;;;13.27;72.32;101444.97;4954435;29;20070;-62
2021/09/21 07:45:00;;;;;;;6.18;3.45;;;;;;;13.24;72.52;101442.53;4954590;29;20062;-64
2021/09/21 07:47:48;;;;;;;6.82;3.83;;;;;;;13.37;72.80;101448.56;4953986;29;20087;-63
2021/09/21 07:50:33;;;;;;;4.95;3.10;;;;;;;13.40;72.76;101453.72;4954383;29;20058;-62
2021/09/21 07:53:19;;;;;;;5.07;3.15;;;;;;;13.37;73.27;101462.06;4954291;28;20082;-63
2021/09/21 07:56:05;;;;;;;6.70;3.60;;;;;;;13.50;71.46;101457.31;4953456;29;20058;-63
2021/09/21 07:58:50;;;;;;;7.85;3.55;;;;;;;13.53;71.23;101465.16;4954361;29;20418;-63
2021/09/21 08:01:37;;;;;;;7.60;3.77;;;;;;;13.64;71.24;101473.16;4954537;29;20528;-64
2021/09/21 08:04:22;;;;;;;5.47;3.03;;;;;;;13.73;71.42;101476.88;4953172;28;20309;-63
2021/09/21 08:07:07;;;;;;;4.72;3.13;;;;;;;13.69;71.31;101465.50;4954099;29;20062;-62
2021/09/21 08:09:52;;;;;;;5.38;3.33;;;;;;;13.62;72.68;101472.44;4954587;29;20125;-63
2021/09/21 08:12:37;;;;;;;8.35;4.05;;;;;;;13.59;72.94;101477.22;4953805;28;20134;-62
2021/09/21 08:15:24;;;;;;;6.90;3.85;;;;;;;13.58;72.68;101484.47;4954067;29;20062;-63
2021/09/21 08:18:11;;;;;;;7.25;4.35;;;;;;;13.55;70.59;101476.66;4954313;29;20063;-62
2021/09/21 08:20:56;;;;;;;6.72;3.83;;;;;;;13.39;70.86;101487.06;4953999;29;20058;-63
2021/09/21 08:23:41;;;;;;;7.10;4.20;;;;;;;13.37;72.00;101492.56;4953880;29;20111;-63
2021/09/21 08:26:26;;;;;;;7.45;3.83;;;;;;;13.26;71.91;101486.38;4960182;28;20135;-63
2021/09/21 08:29:12;;;;;;;7.15;3.85;;;;;;;13.23;72.15;101483.97;4967527;28;20069;-63
2021/09/21 08:31:58;;;;;;;5.22;3.70;;;;;;;13.23;71.95;101481.25;4965927;28;20073;-62
2021/09/21 08:34:44;;;;;;;7.30;3.47;;;;;;;13.25;73.39;101479.28;4973491;28;20097;-62
2021/09/21 08:37:29;;;;;;;8.60;4.70;;;;;;;13.61;71.62;101486.88;4972852;28;20429;-63
2021/09/21 08:40:14;;;;;;;9.30;4.28;;;;;;;13.73;71.97;101479.56;4990256;23;21211;-59
2021/09/21 08:43:00;;;;;;;9.05;4.18;;;;;;;14.07;70.34;101474.75;4991646;28;20057;-56
2021/09/21 08:45:45;;;;;;;8.23;3.80;;;;;;;14.34;67.49;101477.69;4991724;28;20054;-60
2021/09/21 08:48:30;;;;;;;7.30;4.13;;;;;;;14.47;67.75;101468.50;4992535;28;20061;-58
2021/09/21 08:53:54;;;;;;;8.13;4.45;;;;;;;14.98;64.65;101464.69;5010478;28;20088;-62
2021/09/21 08:56:43;;;;;;;6.43;3.63;;;;;;;15.17;63.66;101454.72;5011203;28;20056;-58
2021/09/21 08:59:30;;;;;;;6.63;3.50;;;;;;;15.29;63.89;101451.84;5011820;28;20429;-57
2021/09/21 09:02:15;;;;;;;6.22;3.50;;;;;;;15.28;64.11;101460.97;5010538;28;20069;-60
2021/09/21 09:05:04;;;;;;;5.35;3.60;;;;;;;15.06;62.73;101457.56;5013697;28;20053;-56
2021/09/21 09:07:51;;;;;;;4.15;3.03;;;;;;;15.36;63.80;101463.78;5003436;28;20061;-61
2021/09/21 09:10:38;;;;;;;6.10;3.13;;;;;;;15.63;63.02;101468.47;5011980;28;20073;-57
2021/09/21 09:13:25;;;;;;;7.93;4.10;;;;;;;15.68;61.79;101475.13;5002912;28;20131;-61
2021/09/21 09:16:12;;;;;;;8.65;3.28;;;;;;;15.59;63.29;101472.41;4991842;28;20066;-60
2021/09/21 09:19:03;;;;;;;7.10;3.42;;;;;;;16.05;58.36;101472.41;4992225;28;20065;-63
2021/09/21 09:21:49;;;;;;;6.80;2.63;;;;;;;15.85;57.12;101464.50;4991984;28;20080;-60
2021/09/21 09:24:46;;;;;;;7.95;3.45;;;;;;;15.62;59.42;101469.44;4992393;28;20138;-60
2021/09/21 09:27:39;;;;;;;4.90;3.28;;;;;;;16.21;58.87;101449.22;4991667;28;20058;-57
2021/09/21 09:30:25;;;;;;;7.15;2.78;;;;;;;16.26;57.79;101460.47;4991916;28;20061;-59
2021/09/21 09:33:11;;;;;;;7.80;2.92;;;;;;;16.33;58.24;101469.66;4991823;28;20057;-57
2021/09/21 09:35:56;;;;;;;4.38;2.40;;;;;;;16.16;56.73;101473.22;4991867;28;20049;-61
2021/09/21 09:38:42;;;;;;;3.97;2.28;;;;;;;16.16;58.24;101468.63;4992025;28;20174;-59
2021/09/21 09:41:36;;;;;;;4.45;2.67;;;;;;;16.28;56.65;101467.44;4992263;28;20054;-59
2021/09/21 09:44:25;;;;;;;6.57;3.03;;;;;;;16.30;56.60;101467.28;4992094;28;20192;-60
2021/09/21 09:47:10;;;;;;;5.35;2.67;;;;;;;16.46;57.55;101472.91;4991959;28;20065;-61
2021/09/21 09:49:56;;;;;;;5.80;2.55;;;;;;;16.17;57.61;101469.50;4991562;28;20424;-58
2021/09/21 09:52:41;;;;;;;4.60;3.00;;;;;;;15.74;57.48;101466.38;4991624;28;20057;-60
2021/09/21 09:55:26;;;;;;;4.40;2.53;;;;;;;15.60;57.53;101472.28;4991645;28;20053;-60
2021/09/21 09:58:11;;;;;;;6.10;2.55;;;;;;;15.21;60.19;101466.09;4992757;28;20057;-58
2021/09/21 10:00:58;;;;;;;5.88;2.88;;;;;;;14.88;60.74;101465.53;4991482;28;20065;-59
2021/09/21 10:03:43;;;;;;;4.90;2.83;;;;;;;15.05;59.09;101460.41;4991875;28;20057;-62
2021/09/21 10:06:30;;;;;;;7.20;2.83;;;;;;;15.56;59.28;101464.59;4991369;28;20061;-57
2021/09/21 10:09:15;;;;;;;4.40;2.53;;;;;;;15.93;57.49;101451.94;4991646;28;20515;-59
2021/09/21 10:12:00;;;;;;;5.40;3.08;;;;;;;16.21;57.75;101444.66;4991792;28;20588;-59
2021/09/21 10:14:45;;;;;;;5.57;2.90;;;;;;;16.51;55.11;101451.59;4991660;28;20117;-61
2021/09/21 10:17:33;;;;;;;4.63;2.67;;;;;;;16.63;54.81;101452.22;4991408;28;20144;-62
2021/09/21 10:20:18;;;;;;;5.63;2.58;;;;;;;16.68;53.21;101452.63;4991959;28;20143;-58
2021/09/21 10:23:07;;;;;;;4.07;2.45;;;;;;;16.66;57.55;101458.19;4992009;28;20061;-61
2021/09/21 10:25:52;;;;;;;4.95;2.85;;;;;;;17.19;53.26;101451.91;4991083;28;20148;-57
2021/09/21 10:28:39;;;;;;;3.88;2.42;;;;;;;17.35;52.50;101458.47;4995601;28;20205;-57
2021/09/21 10:31:25;;;;;;;3.83;2.05;;;;;;;17.44;51.92;101454.81;4995400;28;20527;-61
2021/09/21 10:34:13;;;;;;;5.95;2.50;;;;;;;17.11;52.43;101449.13;5011047;28;20053;-63
2021/09/21 10:37:01;;;;;;;4.30;2.53;;;;;;;16.84;53.97;101460.09;5007204;28;20423;-58
2021/09/21 10:39:46;;;;;;;3.85;2.08;;;;;;;16.87;54.10;101462.50;5014525;28;20057;-59
2021/09/21 10:42:32;;;;;;;4.05;2.40;;;;;;;16.67;53.34;101468.06;5014202;28;20185;-61
2021/09/21 10:45:24;;;;;;;8.13;2.30;;;;;;;16.84;53.82;101462.81;5014160;28;20073;-57
2021/09/21 10:48:09;;;;;;;5.55;2.40;;;;;;;16.60;53.64;101463.38;5013770;28;20064;-59
2021/09/21 10:50:59;;;;;;;5.80;2.80;;;;;;;16.72;53.88;101458.63;5014190;28;20056;-60
2021/09/21 10:53:44;;;;;;;6.60;2.78;;;;;;;16.59;54.59;101467.97;5014441;28;20189;-60
2021/09/21 10:56:29;;;;;;;4.65;2.30;;;;;;;16.84;54.13;101466.38;5013858;28;20049;-58
2021/09/21 10:59:16;;;;;;;8.13;3.00;;;;;;;16.65;52.08;101475.47;5014222;28;20053;-61
2021/09/21 11:02:04;;;;;;;5.85;2.50;;;;;;;16.21;52.71;101481.72;5014051;28;20057;-59
2021/09/21 11:04:50;;;;;;;4.68;2.50;;;;;;;16.12;54.28;101479.94;5013990;28;20136;-61
2021/09/21 11:07:37;;;;;;;5.07;2.20;;;;;;;16.29;54.77;101468.28;5013660;28;20112;-63
2021/09/21 11:10:26;;;;;;;4.68;2.72;;;;;;;16.28;52.87;101472.00;5014302;28;20052;-59
2021/09/21 11:13:13;;;;;;;6.15;2.30;;;;;;;16.22;52.58;101472.59;5006623;28;20411;-58
2021/09/21 11:16:00;;;;;;;5.72;2.67;;;;;;;16.07;53.71;101475.81;4993558;28;20544;-58
2021/09/21 11:18:54;;;;;;;3.55;1.95;;;;;;;16.08;51.75;101476.66;4994181;28;20056;-57
2021/09/21 11:21:39;;;;;;;4.68;1.92;;;;;;;16.36;53.24;101480.22;4994391;28;20057;-58
2021/09/21 11:24:25;;;;;;;4.63;1.90;;;;;;;16.33;51.42;101483.22;4994914;28;20124;-62
2021/09/21 11:27:11;;;;;;;6.78;2.00;;;;;;;16.16;50.67;101484.03;4993607;28;20551;-57
2021/09/21 11:30:08;;;;;;;3.80;2.05;;;;;;;16.48;51.77;101473.59;4994027;28;20158;-61
2021/09/21 11:32:53;;;;;;;4.45;2.28;;;;;;;16.46;50.92;101462.06;4993828;28;20061;-61
2021/09/21 11:35:38;;;;;;;5.13;2.28;;;;;;;16.45;50.95;101482.00;4993381;28;20069;-60
2021/09/21 11:38:28;;;;;;;4.10;1.92;;;;;;;16.70;51.81;101471.50;4993165;28;20081;-59
2021/09/21 11:41:16;;;;;;;4.72;1.83;;;;;;;17.04;50.44;101464.31;4993684;28;20176;-58
2021/09/21 11:44:01;;;;;;;6.30;2.20;;;;;;;16.85;49.88;101481.63;4993969;28;20060;-60
2021/09/21 11:46:47;;;;;;;5.47;2.25;;;;;;;16.96;48.80;101475.13;4993231;28;20061;-59
2021/09/21 11:49:32;;;;;;;3.90;1.98;;;;;;;17.09;49.68;101480.16;4994143;28;20144;-58
2021/09/21 11:52:17;;;;;;;5.88;2.28;;;;;;;16.77;49.30;101478.81;4993879;28;20100;-60
2021/09/21 11:55:03;;;;;;;;;;;;;;;16.72;49.10;101480.31;4994067;28;20206;-57
2021/09/21 11:57:51;;;;;;;5.18;2.50;;;;;;;16.57;51.33;101472.66;4993168;28;19937;-58
2021/09/21 12:00:53;;;;;;;4.40;2.35;;;;;;;16.83;49.36;101470.09;4993273;28;20057;-59
2021/09/21 12:03:38;;;;;;;4.47;1.85;;;;;;;17.04;49.75;101455.34;4992994;28;20136;-60
2021/09/21 12:06:32;;;;;;;4.68;2.15;;;;;;;17.40;48.90;101453.41;4992509;28;20053;-58
2021/09/21 12:09:17;;;;;;;4.47;2.28;;;;;;;17.91;48.83;101452.56;4992621;28;20069;-59
2021/09/21 12:12:12;;;;;;;4.85;2.72;;;;;;;17.74;47.40;101461.63;4992677;28;20139;-58
2021/09/21 12:15:00;;;;;;;5.53;2.38;;;;;;;17.61;50.35;101450.31;5012299;28;20177;-59
2021/09/21 12:17:46;;;;;;;4.65;1.95;;;;;;;17.72;47.76;101458.22;5011621;28;20073;-58
2021/09/21 12:20:32;;;;;;;3.50;1.80;;;;;;;17.13;47.81;101452.53;5011254;28;20412;-59
2021/09/21 12:23:17;;;;;;;6.50;1.60;;;;;;;17.12;48.38;101449.97;5015688;28;20538;-57
2021/09/21 12:26:05;;;;;;;5.47;2.00;;;;;;;16.87;47.85;101457.06;5031493;28;20056;-62
2021/09/21 12:28:52;;;;;;;3.85;1.88;;;;;;;16.88;48.64;101458.75;5032202;28;20464;-57
2021/09/21 12:31:39;;;;;;;4.47;1.80;;;;;;;16.96;51.07;101450.72;5031905;28;20057;-59
2021/09/21 12:34:32;;;;;;;5.95;2.10;;;;;;;16.62;49.46;101454.09;5031386;28;20134;-60
2021/09/21 12:37:18;;;;;;;4.65;1.90;;;;;;;16.95;47.57;101451.72;5031492;28;20127;-57
2021/09/21 12:40:12;;;;;;;4.43;1.80;;;;;;;16.81;48.37;101449.53;5031927;28;20549;-59
2021/09/21 12:43:01;;;;;;;4.70;2.08;;;;;;;16.99;47.51;101449.53;5031788;28;20064;-60
2021/09/21 12:45:46;;;;;;;3.85;1.83;;;;;;;17.26;46.60;101446.69;5031426;28;20510;-59
2021/09/21 12:48:34;;;;;;;3.22;1.55;;;;;;;17.12;45.93;101439.13;5031660;28;20077;-60
2021/09/21 12:51:19;;;;;;;4.68;1.90;;;;;;;16.61;47.36;101437.97;5031536;28;20064;-56
2021/09/21 12:54:06;;;;;;;2.92;1.60;;;;;;;16.51;48.62;101440.75;5031734;28;20056;-61
2021/09/21 12:56:56;;;;;;;2.70;1.90;;;;;;;16.55;48.75;101439.44;5031211;28;20103;-61
2021/09/21 12:59:42;;;;;;;4.63;1.80;;;;;;;16.74;47.77;101432.22;5031617;28;20061;-62
2021/09/21 13:02:27;;;;;;;4.28;1.80;;;;;;;17.07;47.09;101431.47;5031876;28;20167;-64
2021/09/21 13:05:13;;;;;;;5.00;2.33;;;;;;;16.94;47.49;101426.47;5031582;28;20065;-62
2021/09/21 13:07:58;;;;;;;5.30;2.28;;;;;;;17.00;48.49;101416.84;5032041;28;20511;-63